Flight Track Log - Related Links

Times and Time Zones

All times are in EST time to prevent confusion due to time zone crossing. See the FDX1151 flight status page for this flight to view local times or setup timezone preferences in your user account.

Time Position Orientation Groundspeed Altitude Reporting Facility
EST Latitude Longitude Course Direction KTS MPH feet Rate Location/Type
Thu 06:37:18 AM -14.4620 -149.5216 31° Northeast  Level FlightAware Approximate
Thu 06:38:18 AM -14.3952 -149.4805 31° Northeast  Level FlightAware Approximate
Thu 06:39:18 AM -14.3154 -149.4315 31° Northeast  Level FlightAware Approximate
Thu 06:40:18 AM -14.2156 -149.3703 31° Northeast  Level FlightAware Approximate
Thu 06:41:18 AM -14.1159 -149.3092 31° Northeast  Level FlightAware Approximate
Thu 06:42:18 AM -14.0149 -149.2474 31° Northeast  Level FlightAware Approximate
Thu 06:43:18 AM -13.9139 -149.1857 31° Northeast  Level FlightAware Approximate
Thu 06:44:18 AM -13.8129 -149.1240 31° Northeast  Level FlightAware Approximate
Thu 06:45:18 AM -13.7113 -149.0620 31° Northeast  Level FlightAware Approximate
Thu 06:46:18 AM -13.6097 -149.0000 31° Northeast  Level FlightAware Approximate
Thu 06:47:18 AM -13.5080 -148.9381 31° Northeast  Level FlightAware Approximate
Thu 06:48:18 AM -13.4064 -148.8763 31° Northeast  Level FlightAware Approximate
Thu 06:49:18 AM -13.3047 -148.8145 31° Northeast  Level FlightAware Approximate
Thu 06:50:18 AM -13.2030 -148.7527 31° Northeast  Level FlightAware Approximate
Thu 06:51:18 AM -13.1013 -148.6911 31° Northeast  Level FlightAware Approximate
Thu 06:52:18 AM -12.9996 -148.6294 31° Northeast  Level FlightAware Approximate
Thu 06:53:18 AM -12.8979 -148.5678 31° Northeast  Level FlightAware Approximate
Thu 06:54:18 AM -12.7961 -148.5063 31° Northeast  Level FlightAware Approximate
Thu 06:55:18 AM -12.6944 -148.4448 31° Northeast  Level FlightAware Approximate
Thu 06:56:18 AM -12.5926 -148.3834 30° Northeast  Level FlightAware Approximate
Thu 06:57:18 AM -12.4908 -148.3220 30° Northeast  Level FlightAware Approximate
Thu 06:58:18 AM -12.3890 -148.2607 30° Northeast  Level FlightAware Approximate
Thu 06:59:18 AM -12.2872 -148.1994 30° Northeast  Level FlightAware Approximate
Thu 07:00:18 AM -12.1854 -148.1381 30° Northeast  Level FlightAware Approximate
Thu 07:01:18 AM -12.0835 -148.0769 30° Northeast  Level FlightAware Approximate
Thu 07:02:18 AM -11.9817 -148.0157 30° Northeast  Level FlightAware Approximate
Thu 07:03:18 AM -11.8798 -147.9546 30° Northeast  Level FlightAware Approximate
Thu 07:04:18 AM -11.7779 -147.8936 30° Northeast  Level FlightAware Approximate
Thu 07:05:18 AM -11.6760 -147.8326 30° Northeast  Level FlightAware Approximate
Thu 07:06:18 AM -11.5741 -147.7716 30° Northeast  Level FlightAware Approximate
Thu 07:07:18 AM -11.4722 -147.7106 30° Northeast  Level FlightAware Approximate
Thu 07:08:18 AM -11.3702 -147.6498 30° Northeast  Level FlightAware Approximate
Thu 07:09:18 AM -11.2683 -147.5889 30° Northeast  Level FlightAware Approximate
Thu 07:10:18 AM -11.1663 -147.5281 30° Northeast  Level FlightAware Approximate
Thu 07:11:18 AM -11.0644 -147.4674 30° Northeast  Level FlightAware Approximate
Thu 07:12:18 AM -10.9624 -147.4067 30° Northeast  Level FlightAware Approximate
Thu 07:13:18 AM -10.8604 -147.3460 30° Northeast  Level FlightAware Approximate
Thu 07:14:18 AM -10.7584 -147.2854 30° Northeast  Level FlightAware Approximate
Thu 07:15:18 AM -10.6564 -147.2248 30° Northeast  Level FlightAware Approximate
Thu 07:16:18 AM -10.5543 -147.1642 30° Northeast  Level FlightAware Approximate
Thu 07:17:18 AM -10.4523 -147.1037 30° Northeast  Level FlightAware Approximate
Thu 07:18:18 AM -10.3502 -147.0433 30° Northeast  Level FlightAware Approximate
Thu 07:19:18 AM -10.2482 -146.9828 30° Northeast  Level FlightAware Approximate
Thu 07:20:18 AM -10.1461 -146.9225 30° Northeast  Level FlightAware Approximate
Thu 07:21:18 AM -10.0440 -146.8621 30° Northeast  Level FlightAware Approximate
Thu 07:22:18 AM -9.9419 -146.8018 30° Northeast  Level FlightAware Approximate
Thu 07:23:18 AM -9.8398 -146.7415 30° Northeast  Level FlightAware Approximate
Thu 07:24:18 AM -9.7377 -146.6813 30° Northeast  Level FlightAware Approximate
Thu 07:25:18 AM -9.6355 -146.6211 30° Northeast  Level FlightAware Approximate
Thu 07:26:18 AM -9.5334 -146.5609 30° Northeast  Level FlightAware Approximate
Thu 07:27:18 AM -9.4312 -146.5008 30° Northeast  Level FlightAware Approximate
Thu 07:28:18 AM -9.3291 -146.4407 30° Northeast  Level FlightAware Approximate
Thu 07:29:18 AM -9.2269 -146.3806 30° Northeast  Level FlightAware Approximate
Thu 07:30:18 AM -9.1247 -146.3206 30° Northeast  Level FlightAware Approximate
Thu 07:31:18 AM -9.0225 -146.2606 30° Northeast  Level FlightAware Approximate
Thu 07:32:18 AM -8.9204 -146.2007 30° Northeast  Level FlightAware Approximate
Thu 07:33:18 AM -8.8181 -146.1407 30° Northeast  Level FlightAware Approximate
Thu 07:34:18 AM -8.7159 -146.0809 30° Northeast  Level FlightAware Approximate
Thu 07:35:18 AM -8.6137 -146.0210 30° Northeast  Level FlightAware Approximate
Thu 07:36:18 AM -8.5115 -145.9610 30° Northeast  Level Estimated
Thu 07:37:18 AM 33.9333 -118.4000 30° Northeast  Level FlightAware Approximate

Login

Don't have an account? Register now (free) for customized features, flight alerts, and more!